Time;durP1;ratioP1;P1;durP2;ratioP2;P2;SDS_P1;SDS_P2;PMS_P1;PMS_P2;Temp;Humidity;BMP_temperature;BMP_pressure;BME280_temperature;BME280_humidity;BME280_pressure;Samples;Min_cycle;Max_cycle;Signal;HPM_P1;HPM_P2
2022/06/05 00:03:00;;;;;;;3.25;2.22;;;22.10;56.80;;;;;;5073464;28;20061;-62
2022/06/05 00:05:28;;;;;;;5.90;2.25;;;22.10;56.70;;;;;;5061893;28;20122;-62
2022/06/05 00:08:00;;;;;;;;;;;22.10;56.80;;;;;;5072275;28;20047;-62
2022/06/05 00:10:28;;;;;;;3.47;1.90;;;22.10;56.80;;;;;;5074123;28;19920;-62
2022/06/05 00:13:19;;;;;;;5.75;2.08;;;22.10;56.90;;;;;;5073884;28;20053;-62
2022/06/05 00:15:45;;;;;;;3.60;2.17;;;22.10;56.80;;;;;;5069348;28;20514;-62
2022/06/05 00:18:11;;;;;;;4.03;2.10;;;22.10;56.90;;;;;;5073609;28;20075;-63
2022/06/05 00:20:37;;;;;;;4.15;2.42;;;22.10;56.90;;;;;;5072575;28;20041;-62
2022/06/05 00:23:03;;;;;;;4.13;2.38;;;22.10;57.00;;;;;;5072402;28;20048;-62
2022/06/05 00:25:38;;;;;;;4.53;2.38;;;22.10;56.90;;;;;;5073870;28;20052;-62
2022/06/05 00:28:19;;;;;;;3.42;2.22;;;22.10;56.80;;;;;;5072362;28;20048;-62
2022/06/05 00:31:04;;;;;;;3.88;2.20;;;22.10;56.80;;;;;;5071507;28;20067;-63
2022/06/05 00:33:37;;;;;;;3.97;2.10;;;22.10;56.80;;;;;;5072301;28;20055;-62
2022/06/05 00:36:40;;;;;;;3.95;2.08;;;22.10;56.80;;;;;;5072352;28;20101;-62
2022/06/05 00:39:34;;;;;;;4.10;2.10;;;22.10;56.80;;;;;;5073443;28;20043;-62
2022/06/05 00:42:10;;;;;;;4.28;2.17;;;22.00;56.70;;;;;;5072114;28;20048;-62
2022/06/05 00:44:41;;;;;;;3.58;2.30;;;22.00;56.80;;;;;;5071319;28;20055;-62
2022/06/05 00:47:08;;;;;;;3.58;2.10;;;22.00;56.70;;;;;;5055722;28;20128;-63
2022/06/05 00:49:39;;;;;;;4.13;2.22;;;22.00;56.70;;;;;;5073246;28;20495;-62
2022/06/05 00:52:06;;;;;;;4.80;2.25;;;22.00;56.70;;;;;;5071162;28;20132;-63
2022/06/05 00:54:31;;;;;;;3.67;2.20;;;22.00;56.80;;;;;;5073311;28;20094;-62
2022/06/05 00:56:57;;;;;;;4.43;2.20;;;22.00;56.70;;;;;;5072441;28;20049;-62
2022/06/05 00:59:23;;;;;;;6.35;2.22;;;22.00;56.70;;;;;;5072064;28;20050;-62
2022/06/05 01:01:49;;;;;;;4.13;2.55;;;22.00;56.70;;;;;;5070775;28;20036;-62
2022/06/05 01:04:14;;;;;;;7.10;2.20;;;22.00;56.70;;;;;;5071101;28;20044;-63
2022/06/05 01:06:40;;;;;;;4.57;2.40;;;22.00;56.80;;;;;;5071556;28;20050;-62
2022/06/05 01:09:05;;;;;;;4.00;2.30;;;22.00;56.80;;;;;;5072934;28;20048;-63
2022/06/05 01:11:45;;;;;;;4.18;2.58;;;22.00;56.80;;;;;;5071868;28;20045;-62
2022/06/05 01:14:29;;;;;;;4.28;2.38;;;22.00;56.70;;;;;;5072685;28;20484;-63
2022/06/05 01:17:06;;;;;;;3.95;2.40;;;22.00;56.70;;;;;;5071490;28;20068;-62
2022/06/05 01:19:40;;;;;;;4.93;2.50;;;21.90;56.70;;;;;;5054047;28;20044;-62
2022/06/05 01:22:31;;;;;;;4.43;2.38;;;22.00;56.70;;;;;;5071089;28;20496;-63
2022/06/05 01:25:34;;;;;;;3.20;2.10;;;21.90;56.60;;;;;;5071351;28;20044;-63
2022/06/05 01:28:14;;;;;;;3.63;2.40;;;21.90;56.70;;;;;;5072306;28;20584;-63
2022/06/05 01:30:47;;;;;;;2.92;2.08;;;21.90;56.70;;;;;;5073086;28;20129;-63
2022/06/05 01:33:26;;;;;;;4.85;2.13;;;21.90;56.70;;;;;;5071489;28;20181;-63
2022/06/05 01:35:56;;;;;;;2.92;2.03;;;21.90;56.70;;;;;;5072357;28;20075;-63
2022/06/05 01:38:31;;;;;;;3.13;2.15;;;21.90;56.70;;;;;;5071448;28;20047;-63
2022/06/05 01:41:01;;;;;;;4.07;2.17;;;21.90;56.70;;;;;;5070322;28;20545;-63
2022/06/05 01:43:31;;;;;;;4.80;2.45;;;21.90;56.70;;;;;;5071669;28;20045;-63
2022/06/05 01:45:59;;;;;;;4.45;2.28;;;21.90;56.70;;;;;;5071539;28;20169;-63
2022/06/05 01:49:01;;;;;;;3.67;2.17;;;21.90;56.70;;;;;;5054084;28;20060;-63
2022/06/05 01:51:31;;;;;;;3.35;2.15;;;21.90;56.70;;;;;;5067341;28;20071;-63
2022/06/05 01:53:56;;;;;;;4.30;2.53;;;21.80;56.70;;;;;;5071130;28;20496;-63
2022/06/05 01:56:37;;;;;;;3.45;2.20;;;21.80;56.60;;;;;;5072603;28;20045;-63
2022/06/05 01:59:22;;;;;;;3.28;2.42;;;21.80;56.60;;;;;;5070991;28;20052;-63
2022/06/05 02:01:51;;;;;;;3.78;2.13;;;21.80;56.70;;;;;;5070087;28;20041;-63
2022/06/05 02:04:26;;;;;;;5.07;2.60;;;21.80;56.70;;;;;;5069704;28;20507;-63
2022/06/05 02:06:57;;;;;;;5.25;2.25;;;21.80;56.70;;;;;;5070685;28;20059;-63
2022/06/05 02:09:29;;;;;;;4.30;2.10;;;21.80;56.70;;;;;;5070647;28;20044;-63
2022/06/05 02:11:54;;;;;;;4.35;2.40;;;21.80;56.70;;;;;;5071446;28;20068;-63
2022/06/05 02:14:20;;;;;;;4.35;2.53;;;21.80;56.70;;;;;;5075030;28;20395;-63
2022/06/05 02:16:46;;;;;;;4.72;2.33;;;21.80;56.70;;;;;;5074044;28;20048;-63
2022/06/05 02:19:16;;;;;;;3.08;2.10;;;21.80;56.70;;;;;;5074773;28;20052;-63
2022/06/05 02:21:42;;;;;;;4.30;2.63;;;21.80;56.70;;;;;;5073631;28;20052;-63
2022/06/05 02:24:08;;;;;;;3.97;2.35;;;21.80;56.70;;;;;;5075816;28;20044;-63
2022/06/05 02:26:34;;;;;;;4.20;2.53;;;21.80;56.70;;;;;;5076214;28;20048;-64
2022/06/05 02:29:02;;;;;;;4.28;2.55;;;21.80;56.70;;;;;;5074988;28;20114;-64
2022/06/05 02:31:57;;;;;;;3.60;2.40;;;21.80;56.70;;;;;;5074581;28;20488;-63
2022/06/05 02:35:07;;;;;;;3.35;2.33;;;21.80;56.70;;;;;;5056049;28;20051;-63
2022/06/05 02:38:15;;;;;;;4.35;2.47;;;21.80;57.40;;;;;;5052564;28;20040;-63
2022/06/05 02:40:45;;;;;;;3.40;2.30;;;21.70;56.70;;;;;;5074431;28;20040;-63
2022/06/05 02:43:21;;;;;;;3.92;2.50;;;21.70;56.70;;;;;;5075059;28;20045;-64
2022/06/05 02:46:00;;;;;;;3.55;2.08;;;21.70;56.70;;;;;;5074055;28;20042;-63
2022/06/05 02:48:39;;;;;;;3.70;2.40;;;21.70;56.70;;;;;;5074661;28;20052;-63
2022/06/05 02:51:07;;;;;;;4.47;2.40;;;21.70;56.60;;;;;;5073384;28;20452;-64
2022/06/05 02:53:51;;;;;;;3.65;2.55;;;21.70;56.70;;;;;;5074216;28;20358;-63
2022/06/05 02:56:17;;;;;;;4.25;2.30;;;21.70;56.70;;;;;;5057615;28;20044;-63
2022/06/05 02:58:43;;;;;;;4.15;2.63;;;21.70;57.40;;;;;;5074399;28;20036;-63
2022/06/05 03:03:53;;;;;;;3.90;2.35;;;21.70;56.80;;;;;;5074433;28;20044;-63
2022/06/05 03:06:18;;;;;;;3.40;2.30;;;21.70;56.70;;;;;;5075052;28;20044;-63
2022/06/05 03:08:44;;;;;;;3.88;2.50;;;21.70;56.70;;;;;;5074597;28;20496;-63
2022/06/05 03:11:09;;;;;;;3.78;2.45;;;21.70;56.70;;;;;;5074482;28;20040;-64
2022/06/05 03:13:35;;;;;;;3.55;2.83;;;21.70;56.80;;;;;;5075164;28;20048;-63
2022/06/05 03:16:00;;;;;;;4.10;2.50;;;21.70;56.80;;;;;;5074905;28;20048;-63
2022/06/05 03:18:26;;;;;;;4.22;2.70;;;21.70;56.80;;;;;;5074239;28;20048;-64
2022/06/05 03:20:57;;;;;;;4.30;2.47;;;21.70;56.80;;;;;;5072245;28;20511;-63
2022/06/05 03:23:25;;;;;;;4.80;2.30;;;21.60;56.70;;;;;;5074610;28;20040;-63
2022/06/05 03:25:50;;;;;;;3.50;2.70;;;21.60;56.70;;;;;;5073376;28;20045;-63
2022/06/05 03:28:17;;;;;;;3.53;2.53;;;21.60;56.70;;;;;;5074911;28;20048;-63
2022/06/05 03:30:43;;;;;;;3.03;2.55;;;21.60;56.70;;;;;;5072666;28;20127;-63
2022/06/05 03:33:08;;;;;;;3.58;2.58;;;21.60;56.70;;;;;;5074155;28;20056;-63
2022/06/05 03:35:42;;;;;;;4.00;2.40;;;21.60;56.80;;;;;;5074318;28;20040;-63
2022/06/05 03:38:08;;;;;;;3.97;2.13;;;21.60;56.70;;;;;;5074796;28;20128;-63
2022/06/05 03:40:34;;;;;;;5.03;2.78;;;21.60;56.70;;;;;;5073890;28;20127;-64
2022/06/05 03:42:59;;;;;;;3.88;2.47;;;21.60;56.70;;;;;;5074192;28;20040;-63
2022/06/05 03:45:25;;;;;;;4.28;2.45;;;21.60;56.70;;;;;;5074319;28;20048;-64
2022/06/05 03:47:51;;;;;;;5.13;2.67;;;21.60;56.70;;;;;;5073549;28;20391;-64
2022/06/05 03:50:17;;;;;;;4.90;2.80;;;21.60;56.70;;;;;;5073991;28;20051;-65
2022/06/05 03:52:42;;;;;;;4.55;2.80;;;21.60;56.70;;;;;;5073596;28;20051;-64
2022/06/05 03:55:09;;;;;;;3.15;2.63;;;21.60;56.70;;;;;;5072950;28;20396;-64
2022/06/05 03:57:35;;;;;;;4.43;2.55;;;21.60;56.70;;;;;;5074439;28;20040;-64
2022/06/05 04:00:00;;;;;;;3.78;2.60;;;21.60;56.70;;;;;;5073130;28;20464;-64
2022/06/05 04:02:27;;;;;;;4.20;2.70;;;21.60;56.80;;;;;;5074239;28;20071;-64
2022/06/05 04:04:53;;;;;;;3.88;2.50;;;21.60;56.80;;;;;;5073349;28;20048;-64
2022/06/05 04:07:19;;;;;;;4.95;2.88;;;21.60;56.80;;;;;;5072106;28;20103;-64
2022/06/05 04:09:44;;;;;;;4.60;2.78;;;21.50;56.70;;;;;;5073909;28;20047;-64
2022/06/05 04:12:10;;;;;;;4.30;2.72;;;21.60;56.80;;;;;;5074122;28;20041;-64
2022/06/05 04:14:35;;;;;;;3.42;2.50;;;21.60;56.80;;;;;;5073099;28;20047;-63
2022/06/05 04:17:01;;;;;;;4.50;2.60;;;21.60;56.80;;;;;;5072576;28;20051;-63
2022/06/05 04:19:27;;;;;;;2.90;2.22;;;21.60;56.80;;;;;;5073032;28;20047;-64
2022/06/05 04:21:52;;;;;;;3.47;2.70;;;21.60;56.80;;;;;;5072348;28;20052;-64
2022/06/05 04:24:18;;;;;;;3.72;2.40;;;21.60;56.80;;;;;;5072357;28;20041;-63
2022/06/05 04:26:44;;;;;;;4.30;2.47;;;21.60;56.80;;;;;;5072827;28;20519;-64
2022/06/05 04:29:10;;;;;;;3.97;2.42;;;21.60;56.90;;;;;;5072933;28;20044;-64
2022/06/05 04:31:38;;;;;;;3.58;2.40;;;21.60;56.90;;;;;;5073241;28;20570;-63
2022/06/05 04:34:05;;;;;;;3.63;2.35;;;21.50;56.90;;;;;;5073219;28;20068;-64
2022/06/05 04:36:31;;;;;;;3.90;2.70;;;21.60;56.90;;;;;;5071656;28;20094;-64
2022/06/05 04:38:57;;;;;;;4.50;2.38;;;21.60;57.00;;;;;;5073241;28;20049;-65
2022/06/05 04:41:24;;;;;;;5.25;2.42;;;21.60;57.10;;;;;;5072460;28;20462;-63
2022/06/05 04:43:50;;;;;;;4.55;2.90;;;21.60;57.70;;;;;;5072427;28;20055;-64
2022/06/05 04:46:19;;;;;;;3.45;2.30;;;21.60;57.10;;;;;;5073161;28;20399;-64
2022/06/05 04:48:45;;;;;;;4.22;2.47;;;21.60;57.10;;;;;;5072763;28;20048;-64
2022/06/05 04:51:12;;;;;;;4.05;2.60;;;21.60;57.10;;;;;;5071945;28;20400;-64
2022/06/05 04:53:38;;;;;;;3.85;2.53;;;21.60;57.10;;;;;;5073119;28;20056;-64
2022/06/05 04:56:08;;;;;;;3.90;2.83;;;21.60;57.10;;;;;;5071738;28;20044;-64
2022/06/05 04:58:34;;;;;;;2.85;2.45;;;21.60;57.20;;;;;;5071678;28;20540;-63
2022/06/05 05:00:59;;;;;;;3.83;2.42;;;21.70;57.50;;;;;;5072496;28;20090;-64
2022/06/05 05:03:25;;;;;;;3.97;2.80;;;21.70;57.60;;;;;;5072093;28;20037;-63
2022/06/05 05:05:51;;;;;;;3.28;2.38;;;21.70;57.60;;;;;;5072348;28;20040;-64
2022/06/05 05:08:16;;;;;;;3.60;2.50;;;21.70;57.60;;;;;;5072944;28;20076;-64
2022/06/05 05:10:42;;;;;;;3.33;2.25;;;21.70;57.50;;;;;;5071782;28;20044;-64
2022/06/05 05:13:08;;;;;;;4.55;2.83;;;21.70;57.40;;;;;;5072804;28;20040;-63
2022/06/05 05:15:34;;;;;;;3.63;2.75;;;21.70;57.50;;;;;;5073013;28;20032;-64
2022/06/05 05:17:59;;;;;;;3.80;2.80;;;21.80;57.50;;;;;;5070201;28;20114;-64
2022/06/05 05:20:25;;;;;;;3.90;2.63;;;21.80;57.50;;;;;;5072284;28;20045;-64
2022/06/05 05:22:51;;;;;;;4.20;2.70;;;21.80;57.50;;;;;;5072375;28;20084;-64
2022/06/05 05:25:17;;;;;;;3.33;2.70;;;21.80;57.50;;;;;;5072120;28;20079;-64
2022/06/05 05:27:42;;;;;;;5.03;2.90;;;21.80;57.40;;;;;;5072306;28;20048;-64
2022/06/05 05:30:08;;;;;;;3.78;2.80;;;21.80;57.60;;;;;;5072894;28;20068;-63
2022/06/05 05:32:34;;;;;;;3.80;2.47;;;21.80;57.50;;;;;;5072111;28;20101;-64
2022/06/05 05:35:00;;;;;;;3.88;2.65;;;21.80;57.60;;;;;;5072119;28;20045;-64
2022/06/05 05:37:25;;;;;;;3.28;2.67;;;21.80;57.60;;;;;;5072559;28;20188;-64
2022/06/05 05:42:35;;;;;;;4.40;3.05;;;21.80;57.60;;;;;;5072432;28;20044;-64
2022/06/05 05:45:00;;;;;;;3.65;2.78;;;21.80;57.60;;;;;;5071948;28;20045;-64
2022/06/05 05:47:28;;;;;;;4.13;2.53;;;21.80;57.60;;;;;;5070694;28;20072;-64
2022/06/05 05:50:02;;;;;;;5.20;3.10;;;21.80;57.60;;;;;;5071615;28;20496;-64
2022/06/05 05:52:28;;;;;;;3.58;2.90;;;21.80;57.60;;;;;;5072234;28;20045;-64
2022/06/05 05:54:53;;;;;;;3.78;3.13;;;21.80;57.50;;;;;;5071930;28;20464;-64
2022/06/05 05:57:19;;;;;;;4.40;2.90;;;21.80;57.60;;;;;;5072196;28;20127;-64
2022/06/05 05:59:44;;;;;;;4.22;3.08;;;21.80;57.60;;;;;;5071448;28;20166;-64
2022/06/05 06:02:13;;;;;;;5.22;2.90;;;21.80;57.60;;;;;;5072296;28;20127;-64
2022/06/05 06:04:39;;;;;;;3.75;2.72;;;21.70;57.60;;;;;;5071014;28;20385;-64
2022/06/05 06:07:05;;;;;;;4.75;3.20;;;21.70;57.60;;;;;;5071393;28;20059;-64
2022/06/05 06:09:33;;;;;;;3.33;2.78;;;21.70;57.60;;;;;;5072038;28;20032;-64
2022/06/05 06:11:59;;;;;;;4.13;2.78;;;21.70;57.70;;;;;;5071516;28;20048;-64
2022/06/05 06:14:24;;;;;;;3.55;2.60;;;21.70;57.80;;;;;;5071697;28;20476;-64
2022/06/05 06:16:50;;;;;;;4.72;2.85;;;21.70;57.80;;;;;;5072083;28;20048;-64
2022/06/05 06:19:15;;;;;;;3.97;2.97;;;21.70;57.80;;;;;;5071947;28;20051;-64
2022/06/05 06:21:41;;;;;;;4.53;3.20;;;21.70;57.80;;;;;;5070779;28;20154;-64
2022/06/05 06:24:06;;;;;;;4.32;3.20;;;21.70;57.90;;;;;;5072065;28;20110;-64
2022/06/05 06:26:32;;;;;;;4.65;3.20;;;21.70;57.90;;;;;;5072217;28;20046;-64
2022/06/05 06:28:58;;;;;;;3.25;2.83;;;21.70;57.90;;;;;;5071166;28;20376;-64
2022/06/05 06:31:23;;;;;;;4.05;2.88;;;21.70;57.90;;;;;;5072354;28;20033;-64
2022/06/05 06:33:49;;;;;;;5.03;2.97;;;21.70;57.90;;;;;;5071984;28;20094;-64
2022/06/05 06:36:16;;;;;;;4.40;2.92;;;21.60;57.90;;;;;;5071643;28;20045;-64
2022/06/05 06:38:41;;;;;;;3.55;2.75;;;21.60;57.90;;;;;;5071548;28;20400;-64
2022/06/05 06:41:10;;;;;;;4.25;2.65;;;21.70;58.00;;;;;;5071778;28;20039;-64
2022/06/05 06:43:36;;;;;;;3.83;2.78;;;21.70;58.00;;;;;;5071332;28;20498;-64
2022/06/05 06:46:01;;;;;;;3.85;2.75;;;21.70;58.00;;;;;;5071223;28;20041;-64
2022/06/05 06:48:27;;;;;;;4.18;2.90;;;21.70;58.00;;;;;;5072006;28;20045;-64
2022/06/05 06:50:54;;;;;;;4.13;3.30;;;21.60;58.00;;;;;;5070722;28;20106;-64
2022/06/05 06:53:20;;;;;;;5.25;3.03;;;21.70;58.10;;;;;;5070497;28;20064;-63
2022/06/05 06:55:46;;;;;;;3.25;2.78;;;21.70;58.20;;;;;;5070610;28;20467;-63
2022/06/05 06:58:11;;;;;;;4.07;3.35;;;21.70;58.30;;;;;;5071591;28;20526;-63
2022/06/05 07:00:37;;;;;;;4.78;3.00;;;21.70;58.40;;;;;;5073430;28;20067;-64
2022/06/05 07:03:03;;;;;;;4.38;2.83;;;21.70;58.50;;;;;;5074382;28;20037;-64
2022/06/05 07:05:28;;;;;;;4.57;3.17;;;21.70;58.50;;;;;;5074801;28;20068;-63
2022/06/05 07:07:54;;;;;;;4.80;2.88;;;21.80;58.50;;;;;;5075050;28;20051;-64
2022/06/05 07:10:19;;;;;;;4.93;3.20;;;21.80;58.50;;;;;;5074145;28;20053;-64
2022/06/05 07:12:47;;;;;;;3.17;2.78;;;21.80;58.50;;;;;;5073531;28;20040;-63
2022/06/05 07:15:13;;;;;;;4.20;3.17;;;21.80;58.50;;;;;;5075275;28;20044;-63
2022/06/05 07:17:38;;;;;;;4.43;3.38;;;21.80;58.50;;;;;;5074476;28;20055;-63
2022/06/05 07:20:04;;;;;;;4.55;2.85;;;21.90;58.40;;;;;;5074384;28;20047;-63
2022/06/05 07:22:30;;;;;;;5.00;3.38;;;21.90;58.30;;;;;;5074787;28;20053;-63
2022/06/05 07:24:56;;;;;;;4.25;3.20;;;21.90;58.30;;;;;;5073904;28;20040;-63
2022/06/05 07:27:21;;;;;;;4.20;3.00;;;21.90;58.20;;;;;;5075033;28;20476;-62
2022/06/05 07:29:47;;;;;;;4.38;3.03;;;22.00;58.20;;;;;;5074509;28;20040;-63
2022/06/05 07:32:13;;;;;;;5.07;2.78;;;21.90;58.20;;;;;;5073367;28;20079;-62
2022/06/05 07:34:39;;;;;;;4.93;2.75;;;21.90;58.20;;;;;;5074662;28;20166;-62
2022/06/05 07:37:05;;;;;;;4.35;3.38;;;22.00;58.10;;;;;;5073799;28;20044;-63
2022/06/05 07:39:31;;;;;;;3.80;3.00;;;22.00;58.10;;;;;;5073622;28;20040;-63
2022/06/05 07:41:59;;;;;;;5.30;3.10;;;22.00;58.10;;;;;;5074543;28;20407;-63
2022/06/05 07:44:26;;;;;;;4.05;3.08;;;22.00;58.10;;;;;;5074686;28;20044;-63
2022/06/05 07:46:51;;;;;;;4.85;3.50;;;22.10;58.20;;;;;;5073480;28;20094;-63
2022/06/05 07:49:17;;;;;;;4.57;2.95;;;22.10;58.10;;;;;;5074532;28;20041;-63
2022/06/05 07:54:27;;;;;;;4.65;3.17;;;22.10;58.10;;;;;;5074127;28;20045;-63
2022/06/05 07:56:57;;;;;;;4.60;3.10;;;22.10;58.10;;;;;;5074125;28;20046;-63
2022/06/05 07:59:26;;;;;;;4.18;3.00;;;22.10;58.10;;;;;;5072616;28;20080;-64
2022/06/05 08:01:52;;;;;;;4.20;3.25;;;22.10;58.10;;;;;;5073732;28;20048;-64
2022/06/05 08:04:17;;;;;;;4.15;2.95;;;22.10;58.10;;;;;;5074036;28;20047;-64
2022/06/05 08:06:43;;;;;;;3.67;3.00;;;22.10;58.10;;;;;;5072645;28;20080;-64
2022/06/05 08:09:08;;;;;;;4.15;3.47;;;22.10;58.00;;;;;;5074184;28;20060;-63
2022/06/05 08:11:34;;;;;;;4.70;3.30;;;22.10;58.00;;;;;;5072735;28;20041;-64
2022/06/05 08:14:00;;;;;;;4.20;3.38;;;22.10;58.10;;;;;;5072662;28;20052;-63
2022/06/05 08:16:26;;;;;;;4.53;3.35;;;22.10;58.00;;;;;;5074088;28;20041;-64
2022/06/05 08:18:52;;;;;;;3.67;3.00;;;22.10;58.00;;;;;;5073780;28;20043;-64
2022/06/05 08:21:23;;;;;;;5.38;3.40;;;22.20;58.10;;;;;;5071555;28;20438;-64
2022/06/05 08:23:49;;;;;;;3.90;3.17;;;22.10;58.10;;;;;;5073708;28;20075;-64
2022/06/05 08:26:15;;;;;;;3.80;3.28;;;22.20;58.10;;;;;;5072800;28;20396;-63
2022/06/05 08:28:40;;;;;;;4.32;2.95;;;22.10;58.00;;;;;;5072220;28;20051;-64
2022/06/05 08:31:06;;;;;;;4.25;3.20;;;22.20;58.10;;;;;;5073139;28;20048;-64
2022/06/05 08:33:32;;;;;;;3.90;3.10;;;22.20;58.10;;;;;;5072110;28;20051;-64
2022/06/05 08:35:58;;;;;;;4.03;3.10;;;22.20;58.10;;;;;;5071778;28;20123;-64
2022/06/05 08:41:39;;;;;;;3.47;2.75;;;22.20;58.20;;;;;;5073094;28;20131;-63
2022/06/05 08:44:16;;;;;;;4.25;3.22;;;22.20;58.20;;;;;;5068487;28;20536;-63
2022/06/05 08:46:56;;;;;;;3.55;2.67;;;22.20;58.20;;;;;;5073172;28;20041;-64
2022/06/05 08:49:44;;;;;;;3.67;3.20;;;22.20;58.20;;;;;;5071492;28;20044;-63
2022/06/05 08:52:19;;;;;;;5.03;3.33;;;22.20;58.30;;;;;;5073222;28;20562;-64
2022/06/05 08:54:49;;;;;;;4.18;3.13;;;22.20;58.30;;;;;;5071862;28;20044;-63
2022/06/05 08:57:18;;;;;;;4.32;3.15;;;22.20;58.20;;;;;;5072481;28;20037;-63
2022/06/05 08:59:58;;;;;;;6.75;3.22;;;22.20;58.20;;;;;;5071307;28;20403;-64
2022/06/05 09:02:26;;;;;;;4.25;3.17;;;22.20;58.20;;;;;;5055047;28;20040;-63
2022/06/05 09:04:53;;;;;;;4.13;3.20;;;22.20;58.20;;;;;;5071990;28;20492;-63
2022/06/05 09:07:22;;;;;;;3.67;2.90;;;22.30;58.20;;;;;;5071211;28;20048;-63
2022/06/05 09:09:51;;;;;;;4.28;2.90;;;22.30;58.30;;;;;;5070625;28;20067;-63
2022/06/05 09:12:28;;;;;;;4.57;3.10;;;22.30;58.20;;;;;;5072793;28;20044;-63
2022/06/05 09:15:22;;;;;;;3.65;2.97;;;22.30;58.30;;;;;;5072249;28;20037;-64
2022/06/05 09:17:59;;;;;;;3.80;3.03;;;22.30;58.20;;;;;;5048966;28;20496;-64
2022/06/05 09:20:49;;;;;;;5.18;3.05;;;22.30;58.30;;;;;;5072733;28;20052;-63
2022/06/05 09:23:30;;;;;;;4.72;3.58;;;22.30;58.20;;;;;;5070375;28;20492;-64
2022/06/05 09:25:58;;;;;;;4.32;3.00;;;22.40;58.20;;;;;;5071137;28;20051;-63
2022/06/05 09:28:36;;;;;;;5.00;3.20;;;22.40;58.30;;;;;;5072780;28;20048;-64
2022/06/05 09:31:23;;;;;;;4.10;3.25;;;22.40;58.30;;;;;;5071672;28;20153;-63
2022/06/05 09:33:48;;;;;;;3.67;3.13;;;22.40;58.20;;;;;;5071712;28;20048;-62
2022/06/05 09:36:16;;;;;;;3.92;3.20;;;22.40;58.20;;;;;;5072365;28;20086;-63
2022/06/05 09:38:46;;;;;;;5.55;3.35;;;22.40;58.20;;;;;;5070523;28;20045;-64
2022/06/05 09:41:12;;;;;;;5.50;3.58;;;22.40;58.20;;;;;;5072782;28;20044;-63
2022/06/05 09:43:55;;;;;;;4.05;3.10;;;22.40;58.20;;;;;;5072702;28;20036;-63
2022/06/05 09:46:47;;;;;;;4.40;3.33;;;22.50;58.30;;;;;;5071464;28;20088;-62
2022/06/05 09:49:35;;;;;;;5.20;3.33;;;22.40;58.20;;;;;;5068194;28;20068;-63
2022/06/05 09:52:22;;;;;;;3.42;3.05;;;22.50;58.30;;;;;;5070237;28;20496;-63
2022/06/05 09:55:02;;;;;;;4.03;3.30;;;22.50;58.50;;;;;;5071568;28;20098;-62
2022/06/05 10:00:37;;;;;;;4.85;3.40;;;22.50;58.30;;;;;;5035651;28;20077;-62
2022/06/05 10:03:06;;;;;;;4.15;3.45;;;22.50;58.20;;;;;;5052196;28;20069;-62
2022/06/05 10:05:33;;;;;;;3.83;3.00;;;22.60;58.30;;;;;;5051056;28;20507;-63
2022/06/05 10:08:21;;;;;;;3.65;3.15;;;22.60;58.30;;;;;;5051460;28;20041;-62
2022/06/05 10:10:47;;;;;;;3.65;3.08;;;22.60;58.40;;;;;;5069625;28;20048;-63
2022/06/05 10:13:16;;;;;;;4.47;3.50;;;22.60;58.30;;;;;;5053445;28;20484;-63
2022/06/05 10:16:02;;;;;;;4.63;3.33;;;22.60;58.40;;;;;;5070594;28;20430;-62
2022/06/05 10:18:37;;;;;;;4.22;3.08;;;22.60;58.40;;;;;;5071031;28;20045;-63
2022/06/05 10:21:07;;;;;;;4.25;3.15;;;22.70;58.40;;;;;;5071008;28;20051;-62
2022/06/05 10:23:45;;;;;;;4.65;3.55;;;22.70;58.40;;;;;;5072266;28;20067;-63
2022/06/05 10:26:18;;;;;;;4.13;3.30;;;22.70;58.50;;;;;;5070542;28;20056;-62
2022/06/05 10:28:44;;;;;;;4.30;3.30;;;22.70;58.50;;;;;;5069201;28;20563;-63
2022/06/05 10:31:30;;;;;;;5.97;3.20;;;22.70;58.40;;;;;;5072235;28;20040;-62
2022/06/05 10:34:09;;;;;;;3.78;3.22;;;22.70;58.40;;;;;;5071438;28;20040;-63
2022/06/05 10:36:59;;;;;;;5.10;3.28;;;22.70;59.10;;;;;;5074680;28;20048;-64
2022/06/05 10:39:32;;;;;;;4.22;3.20;;;22.70;58.40;;;;;;5074675;28;20086;-63
2022/06/05 10:41:58;;;;;;;5.45;3.50;;;22.70;58.50;;;;;;5073691;28;20048;-63
2022/06/05 10:44:51;;;;;;;4.70;3.28;;;22.70;58.50;;;;;;5075651;28;20127;-62
2022/06/05 10:47:46;;;;;;;4.20;3.25;;;22.70;58.50;;;;;;5074664;28;20080;-62
2022/06/05 10:50:18;;;;;;;4.97;3.35;;;22.70;58.50;;;;;;5073880;28;20472;-63
2022/06/05 10:53:12;;;;;;;4.57;3.60;;;22.70;58.50;;;;;;5074005;28;20051;-62
2022/06/05 10:55:58;;;;;;;4.28;3.22;;;22.70;58.60;;;;;;5074377;28;20094;-63
2022/06/05 10:58:29;;;;;;;4.10;3.13;;;22.70;58.60;;;;;;5073815;28;20044;-63
2022/06/05 11:00:56;;;;;;;4.35;3.40;;;22.80;58.60;;;;;;5073981;28;20052;-63
2022/06/05 11:03:39;;;;;;;5.38;3.28;;;22.70;58.60;;;;;;5074808;28;20067;-64
2022/06/05 11:06:25;;;;;;;4.32;3.60;;;22.70;58.60;;;;;;5074017;28;20047;-64
2022/06/05 11:09:07;;;;;;;4.38;3.60;;;22.70;58.70;;;;;;5069972;28;20052;-63
2022/06/05 11:14:31;;;;;;;4.70;3.22;;;22.70;58.70;;;;;;5053941;28;20461;-64
2022/06/05 11:17:17;;;;;;;4.45;3.83;;;22.70;58.70;;;;;;5056514;28;20048;-64
2022/06/05 11:20:01;;;;;;;4.53;3.53;;;22.70;58.80;;;;;;5074391;28;20136;-64
2022/06/05 11:22:27;;;;;;;5.93;3.53;;;22.70;58.80;;;;;;5073267;28;20446;-63
2022/06/05 11:24:56;;;;;;;4.70;3.40;;;22.70;58.80;;;;;;5072895;28;20062;-64
2022/06/05 11:27:34;;;;;;;4.30;3.58;;;22.70;59.50;;;;;;5074028;28;20085;-64
2022/06/05 11:30:12;;;;;;;4.60;3.58;;;22.70;58.90;;;;;;5073438;28;20389;-64
2022/06/05 11:32:55;;;;;;;4.13;3.53;;;22.70;58.90;;;;;;5073558;28;20480;-63
2022/06/05 11:35:30;;;;;;;4.90;3.35;;;22.70;59.60;;;;;;5074258;28;20048;-64
2022/06/05 11:37:59;;;;;;;6.25;3.70;;;22.70;59.00;;;;;;5073585;28;20044;-63
2022/06/05 11:40:33;;;;;;;4.13;3.50;;;22.70;59.00;;;;;;5074133;28;20033;-64
2022/06/05 11:43:09;;;;;;;5.57;3.58;;;22.70;58.90;;;;;;5073287;28;20097;-64
2022/06/05 11:45:57;;;;;;;4.85;3.85;;;22.70;59.00;;;;;;5071971;28;20045;-63
2022/06/05 11:48:37;;;;;;;4.25;3.50;;;22.70;59.00;;;;;;5073626;28;20052;-64
2022/06/05 11:51:26;;;;;;;6.07;3.72;;;22.70;59.00;;;;;;5074013;28;20049;-64
2022/06/05 11:53:57;;;;;;;4.20;3.50;;;22.70;59.00;;;;;;5075247;28;20348;-63
2022/06/05 11:56:35;;;;;;;3.88;3.40;;;22.70;59.00;;;;;;5073399;28;20063;-63
2022/06/05 11:59:20;;;;;;;4.82;3.90;;;22.70;59.00;;;;;;5073288;28;20049;-63
2022/06/05 12:01:48;;;;;;;4.40;3.80;;;22.70;59.10;;;;;;5073779;28;20087;-63
2022/06/05 12:04:19;;;;;;;4.00;3.60;;;22.70;59.10;;;;;;5073957;28;20102;-63
2022/06/05 12:06:50;;;;;;;3.95;3.47;;;22.60;59.80;;;;;;5073120;28;20044;-64
2022/06/05 12:09:18;;;;;;;4.20;3.80;;;22.70;59.10;;;;;;5073126;28;20472;-63
2022/06/05 12:11:59;;;;;;;4.00;3.60;;;22.60;59.10;;;;;;5072554;28;20123;-64
2022/06/05 12:14:34;;;;;;;4.07;3.35;;;22.70;59.20;;;;;;5071815;28;20519;-64
2022/06/05 12:17:06;;;;;;;4.10;3.70;;;22.70;59.30;;;;;;5072744;28;20051;-64
2022/06/05 12:19:37;;;;;;;4.25;3.60;;;22.60;59.30;;;;;;5073129;28;20148;-64
2022/06/05 12:22:14;;;;;;;4.45;4.00;;;22.60;59.30;;;;;;5072617;28;20057;-64
2022/06/05 12:25:06;;;;;;;3.90;3.15;;;22.60;59.30;;;;;;5072786;28;20040;-64
2022/06/05 12:27:54;;;;;;;3.97;3.47;;;22.60;59.30;;;;;;5074571;28;20052;-64
2022/06/05 12:30:26;;;;;;;4.47;3.97;;;22.60;59.30;;;;;;5072778;28;20095;-64
2022/06/05 12:33:05;;;;;;;4.60;3.63;;;22.60;59.40;;;;;;5070927;28;20399;-64
2022/06/05 12:36:00;;;;;;;5.40;3.65;;;22.60;59.40;;;;;;5072595;28;20094;-64
2022/06/05 12:39:06;;;;;;;5.57;4.18;;;22.60;59.40;;;;;;5048759;28;20048;-63
2022/06/05 12:41:50;;;;;;;4.20;3.63;;;22.60;59.40;;;;;;5058438;28;20098;-64
2022/06/05 12:44:27;;;;;;;4.57;3.78;;;22.60;59.40;;;;;;5073753;28;20045;-64
2022/06/05 12:47:07;;;;;;;4.65;4.00;;;22.60;59.50;;;;;;5071884;28;20056;-64
2022/06/05 12:49:53;;;;;;;4.65;3.70;;;22.60;59.50;;;;;;5055284;28;20056;-64
2022/06/05 12:52:28;;;;;;;4.68;4.07;;;22.60;59.50;;;;;;5071827;28;20045;-64
2022/06/05 12:55:00;;;;;;;4.65;3.88;;;22.60;59.60;;;;;;5072395;28;20043;-64
2022/06/05 12:57:31;;;;;;;4.55;3.90;;;22.60;59.60;;;;;;5071616;28;20492;-63
2022/06/05 13:00:03;;;;;;;4.10;3.70;;;22.60;59.60;;;;;;5071703;28;20045;-64
2022/06/05 13:02:42;;;;;;;4.30;3.90;;;22.60;59.60;;;;;;5071596;28;20400;-64
2022/06/05 13:05:21;;;;;;;5.38;3.90;;;22.70;59.70;;;;;;5073215;28;20123;-64
2022/06/05 13:08:04;;;;;;;4.68;4.20;;;22.60;59.60;;;;;;5072503;28;20485;-63
2022/06/05 13:10:46;;;;;;;5.28;4.20;;;22.70;59.80;;;;;;5071335;28;20208;-64
2022/06/05 13:13:17;;;;;;;4.75;3.90;;;22.60;59.80;;;;;;5071294;28;20048;-64
2022/06/05 13:15:52;;;;;;;4.63;3.70;;;22.70;59.80;;;;;;5071946;28;20041;-64
2022/06/05 13:18:29;;;;;;;4.57;3.63;;;22.70;59.80;;;;;;5071906;28;20105;-64
2022/06/05 13:21:15;;;;;;;4.50;3.78;;;22.60;59.80;;;;;;5070993;28;20048;-64
2022/06/05 13:23:48;;;;;;;4.13;3.60;;;22.60;59.70;;;;;;5071358;28;20105;-63
2022/06/05 13:26:39;;;;;;;4.90;4.32;;;22.60;59.80;;;;;;5071597;28;20047;-64
2022/06/05 13:29:10;;;;;;;5.25;4.00;;;22.60;59.70;;;;;;5071311;28;20044;-64
2022/06/05 13:32:01;;;;;;;4.55;4.03;;;22.60;59.80;;;;;;5072044;28;20150;-64